sensor_id;sensor_type;location;lat;lon;timestamp;temperature;humidity
71843;DHT22;59691;-36.632;-64.320;2023-03-01T00:02:09;30.70;45.60
71843;DHT22;59691;-36.632;-64.320;2023-03-01T00:04:35;30.70;45.50
71843;DHT22;59691;-36.632;-64.320;2023-03-01T00:07:02;30.70;45.50
71843;DHT22;59691;-36.632;-64.320;2023-03-01T00:09:28;30.70;45.50
71843;DHT22;59691;-36.632;-64.320;2023-03-01T00:11:55;30.70;45.10
71843;DHT22;59691;-36.632;-64.320;2023-03-01T00:14:21;30.70;45.60
71843;DHT22;59691;-36.632;-64.320;2023-03-01T00:16:49;30.70;45.60
71843;DHT22;59691;-36.632;-64.320;2023-03-01T00:19:17;30.70;45.60
71843;DHT22;59691;-36.632;-64.320;2023-03-01T00:21:44;30.70;45.60
71843;DHT22;59691;-36.632;-64.320;2023-03-01T00:24:10;30.70;45.70
71843;DHT22;59691;-36.632;-64.320;2023-03-01T00:26:37;30.70;45.70
71843;DHT22;59691;-36.632;-64.320;2023-03-01T00:29:04;30.70;45.70
71843;DHT22;59691;-36.632;-64.320;2023-03-01T00:31:31;30.70;45.80
71843;DHT22;59691;-36.632;-64.320;2023-03-01T00:33:58;30.70;45.70
71843;DHT22;59691;-36.632;-64.320;2023-03-01T00:36:26;30.70;45.70
71843;DHT22;59691;-36.632;-64.320;2023-03-01T00:38:53;30.70;45.70
71843;DHT22;59691;-36.632;-64.320;2023-03-01T00:41:19;30.70;45.70
71843;DHT22;59691;-36.632;-64.320;2023-03-01T00:43:48;30.70;45.70
71843;DHT22;59691;-36.632;-64.320;2023-03-01T00:46:16;30.70;45.70
71843;DHT22;59691;-36.632;-64.320;2023-03-01T00:48:43;30.70;45.80
71843;DHT22;59691;-36.632;-64.320;2023-03-01T00:51:28;30.70;45.80
71843;DHT22;59691;-36.632;-64.320;2023-03-01T00:53:55;30.70;45.80
71843;DHT22;59691;-36.632;-64.320;2023-03-01T00:56:22;30.70;45.80
71843;DHT22;59691;-36.632;-64.320;2023-03-01T00:58:49;30.70;45.80
71843;DHT22;59691;-36.632;-64.320;2023-03-01T01:01:17;30.70;45.80
71843;DHT22;59691;-36.632;-64.320;2023-03-01T01:03:54;30.70;45.80
71843;DHT22;59691;-36.632;-64.320;2023-03-01T01:06:22;30.70;45.80
71843;DHT22;59691;-36.632;-64.320;2023-03-01T01:08:50;30.70;45.80
71843;DHT22;59691;-36.632;-64.320;2023-03-01T01:11:16;30.70;45.40
71843;DHT22;59691;-36.632;-64.320;2023-03-01T01:13:44;30.70;45.90
71843;DHT22;59691;-36.632;-64.320;2023-03-01T01:16:11;30.70;45.90
71843;DHT22;59691;-36.632;-64.320;2023-03-01T01:18:37;30.60;45.80
71843;DHT22;59691;-36.632;-64.320;2023-03-01T01:21:09;30.60;45.80
71843;DHT22;59691;-36.632;-64.320;2023-03-01T01:23:36;30.60;45.90
71843;DHT22;59691;-36.632;-64.320;2023-03-01T01:26:07;30.70;46.00
71843;DHT22;59691;-36.632;-64.320;2023-03-01T01:28:33;30.60;45.90
71843;DHT22;59691;-36.632;-64.320;2023-03-01T01:31:00;30.60;45.90
71843;DHT22;59691;-36.632;-64.320;2023-03-01T01:33:26;30.60;45.90
71843;DHT22;59691;-36.632;-64.320;2023-03-01T01:35:53;30.60;45.90
71843;DHT22;59691;-36.632;-64.320;2023-03-01T01:38:20;30.60;45.90
71843;DHT22;59691;-36.632;-64.320;2023-03-01T01:40:47;30.60;45.90
71843;DHT22;59691;-36.632;-64.320;2023-03-01T01:43:18;30.60;45.90
71843;DHT22;59691;-36.632;-64.320;2023-03-01T01:45:45;30.60;46.00
71843;DHT22;59691;-36.632;-64.320;2023-03-01T01:48:13;30.60;46.00
71843;DHT22;59691;-36.632;-64.320;2023-03-01T01:50:40;30.60;46.00
71843;DHT22;59691;-36.632;-64.320;2023-03-01T01:53:12;30.60;46.00
71843;DHT22;59691;-36.632;-64.320;2023-03-01T01:55:43;30.60;46.00
71843;DHT22;59691;-36.632;-64.320;2023-03-01T01:58:11;30.50;46.10
71843;DHT22;59691;-36.632;-64.320;2023-03-01T02:00:39;30.50;46.10
71843;DHT22;59691;-36.632;-64.320;2023-03-01T02:03:08;30.50;46.10
71843;DHT22;59691;-36.632;-64.320;2023-03-01T02:05:43;30.50;46.20
71843;DHT22;59691;-36.632;-64.320;2023-03-01T02:08:11;30.50;46.20
71843;DHT22;59691;-36.632;-64.320;2023-03-01T02:10:38;30.50;45.80
71843;DHT22;59691;-36.632;-64.320;2023-03-01T02:13:05;30.50;46.30
71843;DHT22;59691;-36.632;-64.320;2023-03-01T02:15:32;30.50;46.20
71843;DHT22;59691;-36.632;-64.320;2023-03-01T02:17:59;30.50;46.30
71843;DHT22;59691;-36.632;-64.320;2023-03-01T02:22:53;30.40;46.20
71843;DHT22;59691;-36.632;-64.320;2023-03-01T02:25:33;30.40;46.20
71843;DHT22;59691;-36.632;-64.320;2023-03-01T02:30:37;30.40;46.30
71843;DHT22;59691;-36.632;-64.320;2023-03-01T02:33:24;30.40;46.30
71843;DHT22;59691;-36.632;-64.320;2023-03-01T02:35:51;30.40;46.30
71843;DHT22;59691;-36.632;-64.320;2023-03-01T02:38:18;30.40;46.40
71843;DHT22;59691;-36.632;-64.320;2023-03-01T02:40:46;30.40;46.50
71843;DHT22;59691;-36.632;-64.320;2023-03-01T02:43:15;30.40;46.50
71843;DHT22;59691;-36.632;-64.320;2023-03-01T02:45:50;30.30;46.50
71843;DHT22;59691;-36.632;-64.320;2023-03-01T02:48:17;30.30;46.50
71843;DHT22;59691;-36.632;-64.320;2023-03-01T02:56:04;30.30;46.60
71843;DHT22;59691;-36.632;-64.320;2023-03-01T02:58:31;30.30;46.60
71843;DHT22;59691;-36.632;-64.320;2023-03-01T03:00:57;30.30;46.60
71843;DHT22;59691;-36.632;-64.320;2023-03-01T03:03:26;30.20;46.60
71843;DHT22;59691;-36.632;-64.320;2023-03-01T03:08:55;30.20;46.60
71843;DHT22;59691;-36.632;-64.320;2023-03-01T03:11:22;30.20;46.30
71843;DHT22;59691;-36.632;-64.320;2023-03-01T03:13:49;30.20;46.70
71843;DHT22;59691;-36.632;-64.320;2023-03-01T03:16:15;30.20;46.70
71843;DHT22;59691;-36.632;-64.320;2023-03-01T03:18:41;30.20;46.70
71843;DHT22;59691;-36.632;-64.320;2023-03-01T03:21:08;30.20;46.80
71843;DHT22;59691;-36.632;-64.320;2023-03-01T03:23:37;30.20;46.90
71843;DHT22;59691;-36.632;-64.320;2023-03-01T03:26:04;30.10;46.80
71843;DHT22;59691;-36.632;-64.320;2023-03-01T03:28:32;30.10;46.80
71843;DHT22;59691;-36.632;-64.320;2023-03-01T03:30:58;30.10;46.80
71843;DHT22;59691;-36.632;-64.320;2023-03-01T03:33:29;30.10;46.90
71843;DHT22;59691;-36.632;-64.320;2023-03-01T03:35:56;30.10;46.90
71843;DHT22;59691;-36.632;-64.320;2023-03-01T03:38:22;30.10;46.90
71843;DHT22;59691;-36.632;-64.320;2023-03-01T03:40:50;30.10;47.00
71843;DHT22;59691;-36.632;-64.320;2023-03-01T03:43:20;30.00;46.90
71843;DHT22;59691;-36.632;-64.320;2023-03-01T03:45:48;30.00;47.00
71843;DHT22;59691;-36.632;-64.320;2023-03-01T03:48:14;30.00;47.00
71843;DHT22;59691;-36.632;-64.320;2023-03-01T03:50:41;30.00;47.00
71843;DHT22;59691;-36.632;-64.320;2023-03-01T03:53:11;30.00;47.00
71843;DHT22;59691;-36.632;-64.320;2023-03-01T03:55:37;29.90;46.90
71843;DHT22;59691;-36.632;-64.320;2023-03-01T03:58:08;29.90;47.00
71843;DHT22;59691;-36.632;-64.320;2023-03-01T04:00:36;29.90;47.00
71843;DHT22;59691;-36.632;-64.320;2023-03-01T04:03:03;29.90;47.00
71843;DHT22;59691;-36.632;-64.320;2023-03-01T04:05:30;29.90;47.00
71843;DHT22;59691;-36.632;-64.320;2023-03-01T04:07:56;29.90;47.10
71843;DHT22;59691;-36.632;-64.320;2023-03-01T04:10:29;29.90;47.10
71843;DHT22;59691;-36.632;-64.320;2023-03-01T04:12:56;29.90;46.60
71843;DHT22;59691;-36.632;-64.320;2023-03-01T04:15:23;29.90;47.20
71843;DHT22;59691;-36.632;-64.320;2023-03-01T04:17:51;29.80;47.10
71843;DHT22;59691;-36.632;-64.320;2023-03-01T04:20:18;29.80;47.10
71843;DHT22;59691;-36.632;-64.320;2023-03-01T04:22:56;29.90;47.20
71843;DHT22;59691;-36.632;-64.320;2023-03-01T04:25:23;29.80;47.20
71843;DHT22;59691;-36.632;-64.320;2023-03-01T04:27:50;29.80;47.20
71843;DHT22;59691;-36.632;-64.320;2023-03-01T04:30:16;29.80;47.20
71843;DHT22;59691;-36.632;-64.320;2023-03-01T04:32:42;29.80;47.80
71843;DHT22;59691;-36.632;-64.320;2023-03-01T04:35:09;29.80;47.30
71843;DHT22;59691;-36.632;-64.320;2023-03-01T04:37:35;29.80;47.30
71843;DHT22;59691;-36.632;-64.320;2023-03-01T04:40:02;29.70;47.20
71843;DHT22;59691;-36.632;-64.320;2023-03-01T04:42:42;29.70;47.20
71843;DHT22;59691;-36.632;-64.320;2023-03-01T04:45:08;29.70;47.30
71843;DHT22;59691;-36.632;-64.320;2023-03-01T04:47:41;29.70;47.30
71843;DHT22;59691;-36.632;-64.320;2023-03-01T04:50:08;29.70;47.30
71843;DHT22;59691;-36.632;-64.320;2023-03-01T04:52:35;29.70;47.40
71843;DHT22;59691;-36.632;-64.320;2023-03-01T04:55:01;29.70;47.40
71843;DHT22;59691;-36.632;-64.320;2023-03-01T04:57:29;29.60;47.30
71843;DHT22;59691;-36.632;-64.320;2023-03-01T04:59:55;29.60;47.30
71843;DHT22;59691;-36.632;-64.320;2023-03-01T05:02:22;29.60;47.40
71843;DHT22;59691;-36.632;-64.320;2023-03-01T05:04:48;29.60;47.40
71843;DHT22;59691;-36.632;-64.320;2023-03-01T05:07:15;29.60;47.40
71843;DHT22;59691;-36.632;-64.320;2023-03-01T05:09:47;29.60;47.40
71843;DHT22;59691;-36.632;-64.320;2023-03-01T05:12:14;29.60;47.00
71843;DHT22;59691;-36.632;-64.320;2023-03-01T05:14:41;29.60;47.50
71843;DHT22;59691;-36.632;-64.320;2023-03-01T05:17:07;29.50;47.40
71843;DHT22;59691;-36.632;-64.320;2023-03-01T05:19:34;29.50;47.60
71843;DHT22;59691;-36.632;-64.320;2023-03-01T05:22:00;29.50;47.50
71843;DHT22;59691;-36.632;-64.320;2023-03-01T05:24:30;29.50;47.50
71843;DHT22;59691;-36.632;-64.320;2023-03-01T05:26:57;29.50;47.50
71843;DHT22;59691;-36.632;-64.320;2023-03-01T05:29:24;29.50;47.60
71843;DHT22;59691;-36.632;-64.320;2023-03-01T05:31:55;29.50;47.60
71843;DHT22;59691;-36.632;-64.320;2023-03-01T05:34:25;29.40;47.50
71843;DHT22;59691;-36.632;-64.320;2023-03-01T05:36:52;29.40;47.50
71843;DHT22;59691;-36.632;-64.320;2023-03-01T05:39:22;29.40;47.50
71843;DHT22;59691;-36.632;-64.320;2023-03-01T05:41:56;29.40;47.60
71843;DHT22;59691;-36.632;-64.320;2023-03-01T05:44:23;29.40;47.60
71843;DHT22;59691;-36.632;-64.320;2023-03-01T05:46:49;29.40;47.70
71843;DHT22;59691;-36.632;-64.320;2023-03-01T05:49:16;29.40;47.70
71843;DHT22;59691;-36.632;-64.320;2023-03-01T05:51:43;29.40;47.70
71843;DHT22;59691;-36.632;-64.320;2023-03-01T05:54:09;29.30;47.70
71843;DHT22;59691;-36.632;-64.320;2023-03-01T05:56:36;29.30;47.70
71843;DHT22;59691;-36.632;-64.320;2023-03-01T05:59:03;29.30;47.70
71843;DHT22;59691;-36.632;-64.320;2023-03-01T06:01:33;29.30;47.70
71843;DHT22;59691;-36.632;-64.320;2023-03-01T06:04:00;29.30;47.80
71843;DHT22;59691;-36.632;-64.320;2023-03-01T06:06:26;29.30;47.80
71843;DHT22;59691;-36.632;-64.320;2023-03-01T06:08:54;29.30;47.80
71843;DHT22;59691;-36.632;-64.320;2023-03-01T06:11:20;29.20;47.30
71843;DHT22;59691;-36.632;-64.320;2023-03-01T06:13:47;29.20;47.80
71843;DHT22;59691;-36.632;-64.320;2023-03-01T06:16:13;29.20;47.80
71843;DHT22;59691;-36.632;-64.320;2023-03-01T06:18:40;29.20;47.80
71843;DHT22;59691;-36.632;-64.320;2023-03-01T06:21:07;29.20;47.80
71843;DHT22;59691;-36.632;-64.320;2023-03-01T06:23:34;29.20;47.90
71843;DHT22;59691;-36.632;-64.320;2023-03-01T06:26:04;29.20;47.90
71843;DHT22;59691;-36.632;-64.320;2023-03-01T06:28:30;29.20;47.90
71843;DHT22;59691;-36.632;-64.320;2023-03-01T06:30:57;29.20;47.90
71843;DHT22;59691;-36.632;-64.320;2023-03-01T06:33:23;29.10;47.90
71843;DHT22;59691;-36.632;-64.320;2023-03-01T06:35:50;29.10;48.00
71843;DHT22;59691;-36.632;-64.320;2023-03-01T06:38:17;29.10;47.90
71843;DHT22;59691;-36.632;-64.320;2023-03-01T06:40:44;29.10;48.00
71843;DHT22;59691;-36.632;-64.320;2023-03-01T06:43:17;29.10;48.00
71843;DHT22;59691;-36.632;-64.320;2023-03-01T06:45:43;29.10;48.10
71843;DHT22;59691;-36.632;-64.320;2023-03-01T06:48:09;29.00;48.00
71843;DHT22;59691;-36.632;-64.320;2023-03-01T06:50:36;29.00;48.00
71843;DHT22;59691;-36.632;-64.320;2023-03-01T06:53:03;29.00;48.00
71843;DHT22;59691;-36.632;-64.320;2023-03-01T06:55:30;29.00;48.00
71843;DHT22;59691;-36.632;-64.320;2023-03-01T06:57:57;29.00;48.10
71843;DHT22;59691;-36.632;-64.320;2023-03-01T07:00:24;29.00;48.10
71843;DHT22;59691;-36.632;-64.320;2023-03-01T07:02:51;29.00;48.10
71843;DHT22;59691;-36.632;-64.320;2023-03-01T07:05:17;29.00;48.20
71843;DHT22;59691;-36.632;-64.320;2023-03-01T07:07:43;29.00;48.20
71843;DHT22;59691;-36.632;-64.320;2023-03-01T07:10:10;29.00;48.20
71843;DHT22;59691;-36.632;-64.320;2023-03-01T07:12:36;28.90;47.70
71843;DHT22;59691;-36.632;-64.320;2023-03-01T07:15:03;28.90;48.20
71843;DHT22;59691;-36.632;-64.320;2023-03-01T07:17:30;28.90;48.20
71843;DHT22;59691;-36.632;-64.320;2023-03-01T07:19:56;28.90;48.20
71843;DHT22;59691;-36.632;-64.320;2023-03-01T07:22:23;28.90;48.20
71843;DHT22;59691;-36.632;-64.320;2023-03-01T07:24:49;28.90;48.30
71843;DHT22;59691;-36.632;-64.320;2023-03-01T07:27:15;28.90;48.30
71843;DHT22;59691;-36.632;-64.320;2023-03-01T07:29:42;28.80;48.20
71843;DHT22;59691;-36.632;-64.320;2023-03-01T07:32:08;28.80;48.20
71843;DHT22;59691;-36.632;-64.320;2023-03-01T07:34:35;28.80;48.20
71843;DHT22;59691;-36.632;-64.320;2023-03-01T07:37:02;28.80;48.30
71843;DHT22;59691;-36.632;-64.320;2023-03-01T07:39:28;28.80;48.30
71843;DHT22;59691;-36.632;-64.320;2023-03-01T07:41:54;28.80;48.40
71843;DHT22;59691;-36.632;-64.320;2023-03-01T07:44:21;28.80;48.40
71843;DHT22;59691;-36.632;-64.320;2023-03-01T07:46:47;28.80;48.30
71843;DHT22;59691;-36.632;-64.320;2023-03-01T07:49:14;28.80;48.40
71843;DHT22;59691;-36.632;-64.320;2023-03-01T07:51:40;28.70;48.40
71843;DHT22;59691;-36.632;-64.320;2023-03-01T07:54:07;28.80;48.40
71843;DHT22;59691;-36.632;-64.320;2023-03-01T07:56:34;28.70;48.40
71843;DHT22;59691;-36.632;-64.320;2023-03-01T07:59:00;28.70;48.40
71843;DHT22;59691;-36.632;-64.320;2023-03-01T08:01:26;28.70;48.40
71843;DHT22;59691;-36.632;-64.320;2023-03-01T08:03:53;28.70;48.40
71843;DHT22;59691;-36.632;-64.320;2023-03-01T08:06:19;28.70;48.40
71843;DHT22;59691;-36.632;-64.320;2023-03-01T08:08:45;28.70;48.40
71843;DHT22;59691;-36.632;-64.320;2023-03-01T08:11:13;28.70;48.00
71843;DHT22;59691;-36.632;-64.320;2023-03-01T08:13:40;28.70;48.40
71843;DHT22;59691;-36.632;-64.320;2023-03-01T08:16:13;28.70;48.40
71843;DHT22;59691;-36.632;-64.320;2023-03-01T08:18:40;28.70;48.50
71843;DHT22;59691;-36.632;-64.320;2023-03-01T08:21:07;28.70;48.50
71843;DHT22;59691;-36.632;-64.320;2023-03-01T08:23:34;28.70;48.50
71843;DHT22;59691;-36.632;-64.320;2023-03-01T08:26:08;28.70;48.60
71843;DHT22;59691;-36.632;-64.320;2023-03-01T08:28:34;28.60;48.50
71843;DHT22;59691;-36.632;-64.320;2023-03-01T08:31:01;28.60;48.60
71843;DHT22;59691;-36.632;-64.320;2023-03-01T08:33:27;28.60;48.50
71843;DHT22;59691;-36.632;-64.320;2023-03-01T08:36:01;28.60;48.50
71843;DHT22;59691;-36.632;-64.320;2023-03-01T08:38:28;28.60;48.60
71843;DHT22;59691;-36.632;-64.320;2023-03-01T08:40:54;28.60;48.60
71843;DHT22;59691;-36.632;-64.320;2023-03-01T08:43:20;28.60;48.60
71843;DHT22;59691;-36.632;-64.320;2023-03-01T08:45:50;28.60;48.60
71843;DHT22;59691;-36.632;-64.320;2023-03-01T08:48:16;28.60;48.60
71843;DHT22;59691;-36.632;-64.320;2023-03-01T08:50:43;28.50;48.70
71843;DHT22;59691;-36.632;-64.320;2023-03-01T08:53:09;28.50;48.70
71843;DHT22;59691;-36.632;-64.320;2023-03-01T08:55:35;28.50;48.70
71843;DHT22;59691;-36.632;-64.320;2023-03-01T08:58:02;28.50;48.60
71843;DHT22;59691;-36.632;-64.320;2023-03-01T09:00:28;28.50;48.70
71843;DHT22;59691;-36.632;-64.320;2023-03-01T09:02:54;28.50;48.70
71843;DHT22;59691;-36.632;-64.320;2023-03-01T09:05:21;28.50;48.80
71843;DHT22;59691;-36.632;-64.320;2023-03-01T09:07:47;28.40;48.70
71843;DHT22;59691;-36.632;-64.320;2023-03-01T09:10:14;28.40;48.70
71843;DHT22;59691;-36.632;-64.320;2023-03-01T09:12:40;28.40;48.30
71843;DHT22;59691;-36.632;-64.320;2023-03-01T09:15:06;28.40;48.80
71843;DHT22;59691;-36.632;-64.320;2023-03-01T09:17:33;28.40;48.80
71843;DHT22;59691;-36.632;-64.320;2023-03-01T09:19:59;28.40;48.80
71843;DHT22;59691;-36.632;-64.320;2023-03-01T09:22:26;28.40;48.80
71843;DHT22;59691;-36.632;-64.320;2023-03-01T09:24:52;28.40;48.80
71843;DHT22;59691;-36.632;-64.320;2023-03-01T09:27:18;28.30;48.70
71843;DHT22;59691;-36.632;-64.320;2023-03-01T09:29:45;28.30;48.80
71843;DHT22;59691;-36.632;-64.320;2023-03-01T09:32:11;28.30;48.80
71843;DHT22;59691;-36.632;-64.320;2023-03-01T09:34:38;28.30;48.80
71843;DHT22;59691;-36.632;-64.320;2023-03-01T09:37:24;28.30;48.70
71843;DHT22;59691;-36.632;-64.320;2023-03-01T09:39:50;28.20;48.70
71843;DHT22;59691;-36.632;-64.320;2023-03-01T09:42:16;28.20;48.70
71843;DHT22;59691;-36.632;-64.320;2023-03-01T09:44:48;28.20;48.70
71843;DHT22;59691;-36.632;-64.320;2023-03-01T09:47:19;28.20;48.70
71843;DHT22;59691;-36.632;-64.320;2023-03-01T09:50:10;28.20;48.70
71843;DHT22;59691;-36.632;-64.320;2023-03-01T09:52:46;28.10;48.60
71843;DHT22;59691;-36.632;-64.320;2023-03-01T09:58:25;28.10;48.10
71843;DHT22;59691;-36.632;-64.320;2023-03-01T10:00:47;28.10;48.10
71843;DHT22;59691;-36.632;-64.320;2023-03-01T10:03:22;28.00;48.00
71843;DHT22;59691;-36.632;-64.320;2023-03-01T10:08:29;28.00;48.00
71843;DHT22;59691;-36.632;-64.320;2023-03-01T10:10:59;28.00;48.00
71843;DHT22;59691;-36.632;-64.320;2023-03-01T10:16:18;27.90;48.00
71843;DHT22;59691;-36.632;-64.320;2023-03-01T10:18:47;27.90;47.90
71843;DHT22;59691;-36.632;-64.320;2023-03-01T10:21:19;27.90;47.90
71843;DHT22;59691;-36.632;-64.320;2023-03-01T10:26:17;27.90;47.90
71843;DHT22;59691;-36.632;-64.320;2023-03-01T10:31:24;27.80;47.70
71843;DHT22;59691;-36.632;-64.320;2023-03-01T10:33:55;27.80;47.70
71843;DHT22;59691;-36.632;-64.320;2023-03-01T10:36:23;27.80;47.70
71843;DHT22;59691;-36.632;-64.320;2023-03-01T10:38:53;27.80;47.60
71843;DHT22;59691;-36.632;-64.320;2023-03-01T10:41:21;27.80;47.60
71843;DHT22;59691;-36.632;-64.320;2023-03-01T10:43:54;27.80;47.60
71843;DHT22;59691;-36.632;-64.320;2023-03-01T10:51:41;27.80;47.50
71843;DHT22;59691;-36.632;-64.320;2023-03-01T11:01:46;27.80;47.40
71843;DHT22;59691;-36.632;-64.320;2023-03-01T11:04:13;27.90;47.50
71843;DHT22;59691;-36.632;-64.320;2023-03-01T11:06:40;27.80;47.30
71843;DHT22;59691;-36.632;-64.320;2023-03-01T11:09:20;27.90;47.40
71843;DHT22;59691;-36.632;-64.320;2023-03-01T11:11:57;27.80;47.20
71843;DHT22;59691;-36.632;-64.320;2023-03-01T11:14:25;27.90;46.60
71843;DHT22;59691;-36.632;-64.320;2023-03-01T11:17:02;27.90;43.80
71843;DHT22;59691;-36.632;-64.320;2023-03-01T11:19:28;27.80;41.50
71843;DHT22;59691;-36.632;-64.320;2023-03-01T11:22:10;27.80;40.30
71843;DHT22;59691;-36.632;-64.320;2023-03-01T11:24:41;27.80;39.60
71843;DHT22;59691;-36.632;-64.320;2023-03-01T11:27:19;27.80;39.10
71843;DHT22;59691;-36.632;-64.320;2023-03-01T11:32:24;27.80;38.70
71843;DHT22;59691;-36.632;-64.320;2023-03-01T11:35:02;27.80;38.50
71843;DHT22;59691;-36.632;-64.320;2023-03-01T11:37:32;27.90;38.40
71843;DHT22;59691;-36.632;-64.320;2023-03-01T11:42:34;27.80;37.80
71843;DHT22;59691;-36.632;-64.320;2023-03-01T11:45:08;27.80;37.10
71843;DHT22;59691;-36.632;-64.320;2023-03-01T11:50:15;27.90;37.60
71843;DHT22;59691;-36.632;-64.320;2023-03-01T12:13:40;28.00;36.80
71843;DHT22;59691;-36.632;-64.320;2023-03-01T12:16:33;28.00;36.80
71843;DHT22;59691;-36.632;-64.320;2023-03-01T12:19:15;28.00;36.80
71843;DHT22;59691;-36.632;-64.320;2023-03-01T12:21:53;28.00;36.60
71843;DHT22;59691;-36.632;-64.320;2023-03-01T12:26:54;28.10;36.40
71843;DHT22;59691;-36.632;-64.320;2023-03-01T12:34:46;28.10;35.30
71843;DHT22;59691;-36.632;-64.320;2023-03-01T12:50:32;28.10;33.40
71843;DHT22;59691;-36.632;-64.320;2023-03-01T12:53:02;28.10;33.40
71843;DHT22;59691;-36.632;-64.320;2023-03-01T12:55:33;28.10;33.40
71843;DHT22;59691;-36.632;-64.320;2023-03-01T12:58:17;28.10;33.20
71843;DHT22;59691;-36.632;-64.320;2023-03-01T13:00:59;28.10;33.20
71843;DHT22;59691;-36.632;-64.320;2023-03-01T13:08:35;28.20;33.50
71843;DHT22;59691;-36.632;-64.320;2023-03-01T13:11:03;28.20;34.00
71843;DHT22;59691;-36.632;-64.320;2023-03-01T13:13:30;28.20;34.10
71843;DHT22;59691;-36.632;-64.320;2023-03-01T13:15:57;28.20;34.80
71843;DHT22;59691;-36.632;-64.320;2023-03-01T13:20:51;28.20;31.60
71843;DHT22;59691;-36.632;-64.320;2023-03-01T13:30:58;28.40;33.00
71843;DHT22;59691;-36.632;-64.320;2023-03-01T13:35:54;28.60;33.10
71843;DHT22;59691;-36.632;-64.320;2023-03-01T13:41:07;28.90;33.40
71843;DHT22;59691;-36.632;-64.320;2023-03-01T13:43:37;29.00;33.50
71843;DHT22;59691;-36.632;-64.320;2023-03-01T13:46:08;29.10;34.40
71843;DHT22;59691;-36.632;-64.320;2023-03-01T13:48:36;29.10;35.20
71843;DHT22;59691;-36.632;-64.320;2023-03-01T13:51:05;29.00;35.80
71843;DHT22;59691;-36.632;-64.320;2023-03-01T13:53:34;29.00;36.30
71843;DHT22;59691;-36.632;-64.320;2023-03-01T13:56:03;28.90;36.60
71843;DHT22;59691;-36.632;-64.320;2023-03-01T13:58:33;28.90;36.90
71843;DHT22;59691;-36.632;-64.320;2023-03-01T14:01:25;28.90;37.30
71843;DHT22;59691;-36.632;-64.320;2023-03-01T14:03:52;29.00;37.70
71843;DHT22;59691;-36.632;-64.320;2023-03-01T14:06:28;29.00;37.80
71843;DHT22;59691;-36.632;-64.320;2023-03-01T14:09:05;29.00;38.00
71843;DHT22;59691;-36.632;-64.320;2023-03-01T14:14:28;29.10;38.70
71843;DHT22;59691;-36.632;-64.320;2023-03-01T14:19:26;29.10;38.80
71843;DHT22;59691;-36.632;-64.320;2023-03-01T14:22:12;29.10;38.90
71843;DHT22;59691;-36.632;-64.320;2023-03-01T14:24:44;29.10;39.00
71843;DHT22;59691;-36.632;-64.320;2023-03-01T14:27:12;29.10;39.10
71843;DHT22;59691;-36.632;-64.320;2023-03-01T14:29:39;29.20;39.20
71843;DHT22;59691;-36.632;-64.320;2023-03-01T14:32:25;29.20;39.30
71843;DHT22;59691;-36.632;-64.320;2023-03-01T14:34:51;29.20;39.50
71843;DHT22;59691;-36.632;-64.320;2023-03-01T14:37:19;29.30;39.60
71843;DHT22;59691;-36.632;-64.320;2023-03-01T14:39:46;29.30;39.80
71843;DHT22;59691;-36.632;-64.320;2023-03-01T14:42:12;29.30;39.90
71843;DHT22;59691;-36.632;-64.320;2023-03-01T14:44:41;29.30;39.90
71843;DHT22;59691;-36.632;-64.320;2023-03-01T14:47:12;29.30;40.00
71843;DHT22;59691;-36.632;-64.320;2023-03-01T14:49:39;29.40;40.10
71843;DHT22;59691;-36.632;-64.320;2023-03-01T14:52:25;29.30;39.20
71843;DHT22;59691;-36.632;-64.320;2023-03-01T14:57:21;29.00;37.60
71843;DHT22;59691;-36.632;-64.320;2023-03-01T14:59:52;28.90;37.40
71843;DHT22;59691;-36.632;-64.320;2023-03-01T15:02:21;28.80;37.60
71843;DHT22;59691;-36.632;-64.320;2023-03-01T15:04:49;28.80;38.10
71843;DHT22;59691;-36.632;-64.320;2023-03-01T15:07:17;28.90;38.50
71843;DHT22;59691;-36.632;-64.320;2023-03-01T15:09:43;29.00;38.50
71843;DHT22;59691;-36.632;-64.320;2023-03-01T15:17:31;29.20;38.20
71843;DHT22;59691;-36.632;-64.320;2023-03-01T15:20:03;29.10;37.50
71843;DHT22;59691;-36.632;-64.320;2023-03-01T15:22:30;29.00;37.20
71843;DHT22;59691;-36.632;-64.320;2023-03-01T15:24:57;28.90;36.90
71843;DHT22;59691;-36.632;-64.320;2023-03-01T15:27:24;28.90;36.40
71843;DHT22;59691;-36.632;-64.320;2023-03-01T15:29:55;28.80;36.50
71843;DHT22;59691;-36.632;-64.320;2023-03-01T15:34:48;28.70;36.30
71843;DHT22;59691;-36.632;-64.320;2023-03-01T15:39:59;28.60;36.50
71843;DHT22;59691;-36.632;-64.320;2023-03-01T15:42:36;28.70;36.80
71843;DHT22;59691;-36.632;-64.320;2023-03-01T15:45:10;28.80;36.80
71843;DHT22;59691;-36.632;-64.320;2023-03-01T15:47:39;28.90;36.80
71843;DHT22;59691;-36.632;-64.320;2023-03-01T15:52:41;29.10;36.70
71843;DHT22;59691;-36.632;-64.320;2023-03-01T15:55:15;29.20;36.60
71843;DHT22;59691;-36.632;-64.320;2023-03-01T16:02:37;29.30;34.90
71843;DHT22;59691;-36.632;-64.320;2023-03-01T16:05:04;30.00;29.90
71843;DHT22;59691;-36.632;-64.320;2023-03-01T16:07:30;32.70;26.00
71843;DHT22;59691;-36.632;-64.320;2023-03-01T16:09:57;33.80;25.00
71843;DHT22;59691;-36.632;-64.320;2023-03-01T16:12:23;34.20;25.00
71843;DHT22;59691;-36.632;-64.320;2023-03-01T16:14:50;34.80;24.40
71843;DHT22;59691;-36.632;-64.320;2023-03-01T16:17:17;35.20;25.00
71843;DHT22;59691;-36.632;-64.320;2023-03-01T16:22:13;34.40;23.20
71843;DHT22;59691;-36.632;-64.320;2023-03-01T16:24:40;35.00;23.60
71843;DHT22;59691;-36.632;-64.320;2023-03-01T16:29:35;35.10;22.70
71843;DHT22;59691;-36.632;-64.320;2023-03-01T16:32:01;35.20;22.70
71843;DHT22;59691;-36.632;-64.320;2023-03-01T16:34:28;35.30;23.10
71843;DHT22;59691;-36.632;-64.320;2023-03-01T16:36:54;35.60;22.60
71843;DHT22;59691;-36.632;-64.320;2023-03-01T16:39:21;34.90;21.30
71843;DHT22;59691;-36.632;-64.320;2023-03-01T16:41:47;35.20;21.20
71843;DHT22;59691;-36.632;-64.320;2023-03-01T16:44:14;35.60;21.20
71843;DHT22;59691;-36.632;-64.320;2023-03-01T16:46:41;35.90;21.60
71843;DHT22;59691;-36.632;-64.320;2023-03-01T16:49:08;36.40;20.90
71843;DHT22;59691;-36.632;-64.320;2023-03-01T16:51:35;36.60;20.40
71843;DHT22;59691;-36.632;-64.320;2023-03-01T16:56:30;36.00;20.40
71843;DHT22;59691;-36.632;-64.320;2023-03-01T16:58:58;36.10;20.70
71843;DHT22;59691;-36.632;-64.320;2023-03-01T17:01:24;36.20;20.30
71843;DHT22;59691;-36.632;-64.320;2023-03-01T17:03:51;36.20;20.00
71843;DHT22;59691;-36.632;-64.320;2023-03-01T17:06:18;35.90;20.00
71843;DHT22;59691;-36.632;-64.320;2023-03-01T17:08:46;35.40;20.30
71843;DHT22;59691;-36.632;-64.320;2023-03-01T17:11:13;35.60;20.30
71843;DHT22;59691;-36.632;-64.320;2023-03-01T17:13:41;36.20;19.60
71843;DHT22;59691;-36.632;-64.320;2023-03-01T17:16:09;36.10;20.20
71843;DHT22;59691;-36.632;-64.320;2023-03-01T17:18:36;36.10;19.30
71843;DHT22;59691;-36.632;-64.320;2023-03-01T17:21:03;36.00;19.20